Time;durP1;ratioP1;P1;durP2;ratioP2;P2;SDS_P1;SDS_P2;PMS_P1;PMS_P2;Temp;Humidity;BMP_temperature;BMP_pressure;BME280_temperature;BME280_humidity;BME280_pressure;Samples;Min_cycle;Max_cycle;Signal;HPM_P1;HPM_P2
2021/11/21 00:00:53;;;;;;;47.30;23.58;;;;;;;7.71;64.43;98886.00;5053737;28;20025;-49
2021/11/21 00:03:19;;;;;;;36.67;20.98;;;;;;;7.49;65.35;98879.00;5053851;28;20025;-49
2021/11/21 00:05:44;;;;;;;31.30;17.13;;;;;;;7.49;65.42;98879.81;5053886;28;20025;-48
2021/11/21 00:08:12;;;;;;;45.30;20.00;;;;;;;7.51;65.19;98874.41;5053749;28;20140;-48
2021/11/21 00:10:38;;;;;;;30.25;19.35;;;;;;;7.45;65.32;98875.94;5053665;28;20017;-48
2021/11/21 00:13:04;;;;;;;37.13;18.85;;;;;;;7.37;65.00;98874.19;5053652;28;20486;-48
2021/11/21 00:15:31;;;;;;;69.60;52.63;;;;;;;7.23;65.00;98868.91;5053647;28;20025;-49
2021/11/21 00:17:57;;;;;;;25.80;19.70;;;;;;;7.13;65.71;98864.72;5035662;28;20021;-49
2021/11/21 00:20:22;;;;;;;27.83;18.92;;;;;;;7.09;64.93;98860.03;5053505;28;20040;-49
2021/11/21 00:22:48;;;;;;;67.75;38.30;;;;;;;7.05;65.30;98861.38;5053563;28;20498;-48
2021/11/21 00:25:14;;;;;;;187.70;108.78;;;;;;;6.92;65.19;98860.16;5053413;28;20025;-49
2021/11/21 00:27:40;;;;;;;550.58;358.60;;;;;;;6.78;65.36;98858.25;5050759;28;20028;-49
2021/11/21 00:30:15;;;;;;;154.70;100.47;;;;;;;6.59;65.17;98851.66;5033516;28;20401;-49
2021/11/21 00:32:41;;;;;;;1999.90;932.17;;;;;;;6.49;66.46;98851.88;5033938;28;20029;-49
2021/11/21 00:35:06;;;;;;;631.67;302.95;;;;;;;6.45;66.59;98847.97;5033362;28;20041;-49
2021/11/21 00:37:32;;;;;;;347.98;158.05;;;;;;;6.48;67.61;98852.88;5033320;28;20021;-50
2021/11/21 00:39:59;;;;;;;84.28;40.70;;;;;;;6.60;67.92;98853.31;5033261;28;20030;-49
2021/11/21 00:42:24;;;;;;;401.73;288.55;;;;;;;6.65;67.70;98837.94;5015418;28;20026;-49
2021/11/21 00:44:51;;;;;;;95.38;38.33;;;;;;;6.66;67.30;98834.38;5033151;28;20040;-49
2021/11/21 00:47:17;;;;;;;48.90;24.83;;;;;;;6.68;66.84;98836.78;5033124;28;20109;-50
2021/11/21 00:49:43;;;;;;;36.83;23.17;;;;;;;6.68;66.85;98828.97;5015255;28;20421;-49
2021/11/21 00:52:10;;;;;;;64.07;20.30;;;;;;;6.62;66.84;98821.81;5032095;28;20513;-49
2021/11/21 00:54:47;;;;;;;44.42;22.17;;;;;;;6.55;66.70;98817.28;5032923;28;20056;-50
2021/11/21 00:57:14;;;;;;;52.33;22.42;;;;;;;6.53;67.31;98810.63;5032923;28;20037;-49
2021/11/21 00:59:40;;;;;;;59.03;21.10;;;;;;;6.48;67.14;98805.94;5032789;28;20056;-49
2021/11/21 01:02:11;;;;;;;68.63;23.23;;;;;;;6.36;67.37;98795.06;5032812;28;20463;-50
2021/11/21 01:04:39;;;;;;;61.83;25.88;;;;;;;6.23;67.44;98807.03;5032907;28;20029;-49
2021/11/21 01:07:05;;;;;;;46.15;23.85;;;;;;;6.15;68.70;98794.84;5032617;28;20029;-50
2021/11/21 01:09:31;;;;;;;58.45;26.67;;;;;;;6.19;69.09;98793.50;5014879;28;20454;-50
2021/11/21 01:11:57;;;;;;;61.75;23.98;;;;;;;6.24;68.90;98788.63;5032504;28;20022;-49
2021/11/21 01:14:28;;;;;;;59.38;28.33;;;;;;;6.11;69.26;98778.72;5032612;28;20029;-49
2021/11/21 01:16:54;;;;;;;64.28;26.88;;;;;;;6.01;69.84;98775.50;5032646;28;20049;-49
2021/11/21 01:19:20;;;;;;;66.47;34.35;;;;;;;5.95;69.59;98784.81;5032517;28;20021;-50
2021/11/21 01:21:46;;;;;;;88.20;50.08;;;;;;;5.96;70.09;98773.41;5032442;28;20095;-49
2021/11/21 01:24:12;;;;;;;68.75;37.50;;;;;;;5.94;70.58;98771.94;5014729;28;20029;-49
2021/11/21 01:26:38;;;;;;;93.25;34.45;;;;;;;5.82;71.01;98765.47;5032390;28;20433;-49
2021/11/21 01:29:05;;;;;;;49.65;28.65;;;;;;;5.92;71.28;98768.69;5032154;28;20596;-49
2021/11/21 01:31:30;;;;;;;43.83;27.10;;;;;;;6.22;70.79;98766.28;5032205;28;20026;-49
2021/11/21 01:33:56;;;;;;;49.08;24.15;;;;;;;6.17;67.94;98756.38;5032293;28;20029;-49
2021/11/21 01:36:22;;;;;;;53.00;34.83;;;;;;;5.84;68.78;98763.50;5032183;28;20487;-49
2021/11/21 01:38:48;;;;;;;41.80;25.65;;;;;;;6.02;69.80;98755.47;5032237;28;20018;-49
2021/11/21 01:41:14;;;;;;;38.33;24.90;;;;;;;6.34;69.16;98751.94;5032100;28;20025;-49
2021/11/21 01:43:42;;;;;;;42.75;25.50;;;;;;;6.34;68.41;98746.72;5032000;28;20025;-49
2021/11/21 01:46:09;;;;;;;40.90;25.05;;;;;;;6.43;67.64;98747.47;5031920;28;20028;-49
2021/11/21 01:48:35;;;;;;;36.42;21.85;;;;;;;6.34;68.02;98744.91;5014186;28;20210;-49
2021/11/21 01:51:07;;;;;;;33.72;22.55;;;;;;;6.65;68.60;98738.03;5031964;28;20029;-49
2021/11/21 01:53:34;;;;;;;108.78;26.42;;;;;;;6.92;67.21;98742.75;5032032;28;20025;-49
2021/11/21 01:56:00;;;;;;;80.80;27.42;;;;;;;6.66;66.06;98744.88;5014174;28;20026;-49
2021/11/21 01:58:26;;;;;;;42.75;24.50;;;;;;;6.41;67.35;98745.03;5031850;28;20443;-49
2021/11/21 02:00:53;;;;;;;42.33;26.27;;;;;;;6.23;67.06;98740.06;5031909;28;20036;-49
2021/11/21 02:03:19;;;;;;;34.75;24.45;;;;;;;6.10;67.31;98745.84;5031763;28;20024;-49
2021/11/21 02:05:49;;;;;;;40.63;25.63;;;;;;;6.11;68.02;98738.84;5031801;28;20032;-49
2021/11/21 02:08:15;;;;;;;43.20;21.67;;;;;;;6.26;67.77;98741.53;5031794;28;20018;-49
2021/11/21 02:10:41;;;;;;;47.90;26.67;;;;;;;6.25;66.94;98750.34;5031647;28;20503;-49
2021/11/21 02:13:09;;;;;;;42.97;24.05;;;;;;;6.34;66.75;98739.69;5031733;28;20080;-50
2021/11/21 02:15:36;;;;;;;38.53;23.05;;;;;;;6.37;66.36;98739.34;5031726;28;20072;-49
2021/11/21 02:18:03;;;;;;;30.42;22.15;;;;;;;6.25;66.45;98734.69;5031714;28;20022;-49
2021/11/21 02:20:34;;;;;;;37.08;24.60;;;;;;;6.25;66.48;98734.69;5031689;28;20124;-49
2021/11/21 02:23:05;;;;;;;51.13;24.10;;;;;;;6.20;66.13;98738.63;5013829;28;20029;-48
2021/11/21 02:25:31;;;;;;;60.78;24.20;;;;;;;6.08;66.60;98724.38;5013904;28;20037;-49
2021/11/21 02:27:57;;;;;;;53.40;25.52;;;;;;;6.00;67.14;98729.63;5035932;28;20486;-49
2021/11/21 02:30:23;;;;;;;42.75;25.20;;;;;;;5.93;67.22;98728.63;5051606;28;20021;-49
2021/11/21 02:32:51;;;;;;;38.95;27.15;;;;;;;5.87;67.41;98724.91;5051412;28;20490;-49
2021/11/21 02:35:18;;;;;;;49.47;26.95;;;;;;;5.94;68.71;98722.44;5033485;28;20028;-49
2021/11/21 02:37:45;;;;;;;77.50;26.55;;;;;;;6.06;68.90;98725.53;5051449;28;20029;-48
2021/11/21 02:40:12;;;;;;;51.72;24.17;;;;;;;6.12;68.75;98715.22;5051494;28;20013;-49
2021/11/21 02:42:37;;;;;;;39.47;23.33;;;;;;;6.26;69.44;98718.06;5033501;28;20525;-49
2021/11/21 02:45:07;;;;;;;84.78;56.33;;;;;;;6.43;68.72;98705.75;5051301;28;20025;-49
2021/11/21 02:47:34;;;;;;;40.78;26.45;;;;;;;6.52;68.28;98697.72;5051356;28;20036;-49
2021/11/21 02:50:03;;;;;;;53.20;25.80;;;;;;;6.51;67.96;98705.72;5051327;28;20021;-49
2021/11/21 02:52:30;;;;;;;38.90;23.48;;;;;;;6.47;68.42;98700.03;5032449;28;20036;-49
2021/11/21 02:54:57;;;;;;;39.55;24.40;;;;;;;6.52;68.23;98689.91;5051254;28;20034;-49
2021/11/21 02:57:26;;;;;;;80.68;23.25;;;;;;;6.66;68.04;98696.16;5033363;28;20060;-49
2021/11/21 02:59:53;;;;;;;56.58;25.25;;;;;;;6.44;67.52;98689.13;5051276;28;20489;-49
2021/11/21 03:02:20;;;;;;;56.47;26.13;;;;;;;6.48;68.75;98686.00;5051174;28;20029;-49
2021/11/21 03:04:50;;;;;;;34.42;23.10;;;;;;;6.74;68.16;98688.25;5034729;28;20035;-49
2021/11/21 03:07:16;;;;;;;43.67;24.42;;;;;;;6.85;66.79;98687.03;5030677;28;20029;-49
2021/11/21 03:09:43;;;;;;;38.05;20.77;;;;;;;6.72;66.82;98681.59;5033519;28;20501;-49
2021/11/21 03:12:09;;;;;;;39.97;20.88;;;;;;;6.65;67.03;98689.31;5033115;28;20525;-49
2021/11/21 03:14:35;;;;;;;29.98;19.55;;;;;;;6.58;67.17;98683.19;5033878;28;20393;-49
2021/11/21 03:17:01;;;;;;;23.38;15.00;;;;;;;6.64;66.77;98673.81;5054771;28;20024;-49
2021/11/21 03:19:27;;;;;;;28.15;15.57;;;;;;;6.63;65.57;98677.44;5054774;28;20092;-49
2021/11/21 03:21:53;;;;;;;40.15;17.38;;;;;;;6.55;64.87;98667.88;5054647;28;20111;-49
2021/11/21 03:24:20;;;;;;;61.33;19.17;;;;;;;6.35;65.38;98670.94;5054682;28;20096;-49
2021/11/21 03:26:45;;;;;;;35.50;17.20;;;;;;;6.11;65.78;98661.47;5054533;28;20111;-49
2021/11/21 03:29:12;;;;;;;43.55;18.23;;;;;;;5.93;66.70;98663.50;5054326;28;20470;-49
2021/11/21 03:31:38;;;;;;;39.10;20.60;;;;;;;5.93;66.81;98663.50;5036521;28;20028;-49
2021/11/21 03:34:05;;;;;;;186.63;23.58;;;;;;;5.88;67.08;98652.81;5036590;28;20104;-49
2021/11/21 03:36:32;;;;;;;52.17;21.60;;;;;;;5.80;66.94;98654.47;5054451;28;20025;-49
2021/11/21 03:38:58;;;;;;;89.43;24.17;;;;;;;5.72;67.67;98651.91;5036454;28;20063;-49
2021/11/21 03:41:24;;;;;;;53.78;23.85;;;;;;;5.62;67.90;98658.28;5054330;28;20075;-49
2021/11/21 03:43:50;;;;;;;142.35;26.65;;;;;;;5.62;68.44;98656.50;5054287;28;20021;-49
2021/11/21 03:46:16;;;;;;;118.32;24.52;;;;;;;5.69;68.23;98649.63;5054229;28;20432;-49
2021/11/21 03:48:42;;;;;;;52.58;24.05;;;;;;;5.66;68.43;98663.00;5054202;28;20402;-49
2021/11/21 03:51:08;;;;;;;110.93;25.15;;;;;;;5.70;68.96;98660.88;5054100;28;20022;-49
2021/11/21 03:53:35;;;;;;;110.45;23.67;;;;;;;5.84;68.66;98651.53;5036267;28;20021;-49
2021/11/21 03:56:01;;;;;;;66.70;22.77;;;;;;;5.94;68.61;98652.13;5036118;28;20433;-49
2021/11/21 03:58:26;;;;;;;67.70;22.42;;;;;;;5.99;68.29;98655.03;5036123;28;20086;-48
2021/11/21 04:00:52;;;;;;;58.33;21.27;;;;;;;5.98;69.07;98646.41;5053926;28;20460;-49
2021/11/21 04:03:19;;;;;;;48.95;21.85;;;;;;;6.04;68.37;98637.13;5053995;28;20024;-49
2021/11/21 04:05:45;;;;;;;52.53;21.90;;;;;;;6.15;68.21;98641.09;5053963;28;20025;-49
2021/11/21 04:08:11;;;;;;;279.80;25.05;;;;;;;6.30;67.86;98638.56;5053782;28;20036;-49
2021/11/21 04:10:37;;;;;;;64.63;21.15;;;;;;;6.16;67.46;98640.94;5053807;28;20017;-49
2021/11/21 04:13:05;;;;;;;53.65;20.02;;;;;;;6.04;67.82;98644.09;5053697;28;20028;-49
2021/11/21 04:17:56;;;;;;;37.25;18.48;;;;;;;6.02;68.46;98640.84;5053736;28;20565;-49
2021/11/21 04:20:22;;;;;;;36.05;17.80;;;;;;;6.09;67.85;98645.19;5035763;28;20075;-49
2021/11/21 04:22:47;;;;;;;36.50;16.25;;;;;;;6.17;67.91;98642.53;5053646;28;20061;-49
2021/11/21 04:25:13;;;;;;;27.65;16.90;;;;;;;6.19;67.87;98639.78;5053503;28;20017;-49
2021/11/21 04:27:40;;;;;;;23.67;16.17;;;;;;;6.18;67.49;98632.97;5034162;28;20028;-48
2021/11/21 04:30:10;;;;;;;54.00;17.60;;;;;;;6.28;67.54;98635.31;5053484;28;20506;-49
2021/11/21 04:32:37;;;;;;;25.25;15.73;;;;;;;6.26;66.71;98626.84;5053348;28;20048;-49
2021/11/21 04:35:08;;;;;;;34.28;18.83;;;;;;;6.17;67.90;98632.13;5053277;28;20490;-50
2021/11/21 04:37:35;;;;;;;34.80;18.40;;;;;;;6.13;67.39;98630.84;5053408;28;20486;-49
2021/11/21 04:40:05;;;;;;;33.88;17.88;;;;;;;6.04;67.54;98624.09;5035295;28;20498;-49
2021/11/21 04:42:31;;;;;;;53.63;16.13;;;;;;;6.07;67.82;98617.72;5035302;28;20037;-49
2021/11/21 04:44:57;;;;;;;38.47;17.92;;;;;;;6.02;67.40;98617.41;5035224;28;20071;-49
2021/11/21 04:47:23;;;;;;;32.65;17.98;;;;;;;5.91;68.20;98613.38;5035166;28;20035;-49
2021/11/21 04:49:48;;;;;;;40.50;18.33;;;;;;;5.89;68.01;98608.34;5053069;28;20066;-49
2021/11/21 04:52:14;;;;;;;42.88;19.38;;;;;;;5.85;68.36;98611.47;5053209;28;20029;-49
2021/11/21 04:54:40;;;;;;;39.35;19.48;;;;;;;5.69;68.23;98612.34;5035101;28;20524;-48
2021/11/21 04:57:08;;;;;;;77.18;19.65;;;;;;;5.60;68.43;98609.00;5052900;28;20025;-49
2021/11/21 04:59:34;;;;;;;56.47;20.33;;;;;;;5.47;69.06;98603.50;5052872;28;20032;-49
2021/11/21 05:02:01;;;;;;;66.25;21.25;;;;;;;5.27;69.40;98606.53;5038405;28;20098;-49
2021/11/21 05:04:27;;;;;;;90.18;25.48;;;;;;;5.18;70.61;98604.94;5052776;28;20096;-49
2021/11/21 05:06:53;;;;;;;62.33;20.88;;;;;;;5.15;70.37;98594.84;5052710;28;20538;-49
2021/11/21 05:09:19;;;;;;;62.25;22.10;;;;;;;5.10;70.61;98597.16;5034783;28;20025;-49
2021/11/21 05:11:45;;;;;;;81.30;25.83;;;;;;;5.02;71.12;98592.78;5034655;28;20048;-50
2021/11/21 05:14:14;;;;;;;73.57;25.30;;;;;;;5.04;71.30;98584.81;5052556;28;20040;-49
2021/11/21 05:16:39;;;;;;;100.25;28.98;;;;;;;5.10;71.09;98591.94;5052523;28;20074;-49
2021/11/21 05:19:05;;;;;;;87.38;24.15;;;;;;;5.16;70.77;98586.06;5034606;28;20197;-49
2021/11/21 05:21:31;;;;;;;53.45;23.75;;;;;;;5.16;70.33;98586.06;5052456;28;20128;-49
2021/11/21 05:23:56;;;;;;;54.28;23.38;;;;;;;5.18;70.24;98587.53;5052463;28;20031;-49
2021/11/21 05:26:24;;;;;;;41.75;22.90;;;;;;;5.17;70.46;98575.50;5052782;28;20056;-48
2021/11/21 05:28:51;;;;;;;67.65;23.80;;;;;;;5.23;70.67;98581.00;5052042;28;20091;-48
2021/11/21 05:31:17;;;;;;;53.80;23.50;;;;;;;5.26;70.09;98575.47;5052118;28;20024;-49
2021/11/21 05:33:43;;;;;;;53.33;19.05;;;;;;;5.17;69.85;98575.50;5035418;28;20067;-49
2021/11/21 05:36:09;;;;;;;50.65;21.58;;;;;;;5.09;70.67;98575.53;5031030;28;20026;-49
2021/11/21 05:38:34;;;;;;;50.30;20.48;;;;;;;5.10;70.51;98573.75;5051616;28;20505;-49
2021/11/21 05:41:02;;;;;;;47.38;19.52;;;;;;;5.06;70.86;98573.25;5034185;28;20056;-49
2021/11/21 05:43:27;;;;;;;43.92;18.35;;;;;;;4.98;70.77;98568.88;5052061;28;20096;-48
2021/11/21 05:45:53;;;;;;;54.25;20.98;;;;;;;4.92;71.04;98566.97;5052034;28;20028;-49
2021/11/21 05:48:19;;;;;;;65.38;18.73;;;;;;;5.00;71.15;98572.13;5034071;28;20089;-49
2021/11/21 05:50:44;;;;;;;31.50;17.55;;;;;;;5.05;70.87;98570.81;5051936;28;20500;-49
2021/11/21 05:53:10;;;;;;;40.88;17.38;;;;;;;4.96;70.00;98563.03;5051900;28;20447;-48
2021/11/21 05:55:36;;;;;;;50.00;17.15;;;;;;;4.79;70.75;98557.09;5033976;28;20029;-48
2021/11/21 05:58:02;;;;;;;32.72;17.88;;;;;;;4.80;70.89;98552.69;5051934;28;20017;-49
2021/11/21 06:00:28;;;;;;;32.25;18.13;;;;;;;4.82;69.83;98547.34;5051805;28;20020;-48
2021/11/21 06:02:55;;;;;;;25.00;15.55;;;;;;;4.73;69.63;98557.75;5051825;28;20435;-49
2021/11/21 06:05:21;;;;;;;25.90;16.05;;;;;;;4.64;70.19;98545.75;5033846;28;20144;-48
2021/11/21 06:07:47;;;;;;;25.27;14.27;;;;;;;4.62;69.88;98542.50;5033847;28;20498;-48
2021/11/21 06:10:15;;;;;;;26.73;17.10;;;;;;;4.55;69.50;98539.75;5051664;28;20126;-49
2021/11/21 06:12:41;;;;;;;22.00;16.73;;;;;;;4.51;69.74;98537.66;5051583;28;20025;-49
2021/11/21 06:15:09;;;;;;;27.60;15.07;;;;;;;4.45;69.95;98528.72;5038152;28;20029;-48
2021/11/21 06:17:35;;;;;;;27.02;14.15;;;;;;;4.44;69.86;98529.69;5033599;28;20112;-49
2021/11/21 06:20:01;;;;;;;43.08;16.40;;;;;;;4.39;69.74;98527.59;5051577;28;20111;-48
2021/11/21 06:22:26;;;;;;;26.08;18.02;;;;;;;4.24;70.31;98533.63;5033733;28;20033;-48
2021/11/21 06:24:52;;;;;;;29.65;15.77;;;;;;;4.27;70.56;98525.50;5051905;28;20107;-47
2021/11/21 06:27:18;;;;;;;36.78;16.25;;;;;;;4.21;70.92;98526.97;5051518;28;20033;-48
2021/11/21 06:29:44;;;;;;;29.38;16.38;;;;;;;4.33;70.97;98520.47;5014333;28;20503;-48
2021/11/21 06:32:10;;;;;;;26.13;17.35;;;;;;;4.50;70.94;98521.22;5031518;28;20505;-48
2021/11/21 06:34:36;;;;;;;24.15;14.93;;;;;;;4.64;70.29;98514.53;5014084;28;20033;-47
2021/11/21 06:37:04;;;;;;;24.55;15.90;;;;;;;4.73;70.27;98512.75;5013862;28;20018;-48
2021/11/21 06:39:33;;;;;;;24.50;17.10;;;;;;;4.76;69.83;98508.00;5031505;28;20033;-48
2021/11/21 06:41:58;;;;;;;28.05;14.55;;;;;;;4.68;69.47;98496.84;5031475;28;20100;-48
2021/11/21 06:44:24;;;;;;;19.67;14.90;;;;;;;4.68;69.77;98507.22;5031561;28;20562;-49
2021/11/21 06:46:50;;;;;;;28.00;14.48;;;;;;;4.58;69.18;98494.41;5031477;28;20022;-46
2021/11/21 06:49:16;;;;;;;44.10;16.02;;;;;;;4.32;69.38;98498.03;5013838;28;20037;-48
2021/11/21 06:51:44;;;;;;;32.15;14.75;;;;;;;4.10;70.05;98489.13;5035218;28;20045;-47
2021/11/21 06:54:11;;;;;;;29.15;15.30;;;;;;;4.05;70.23;98491.41;5035302;28;20398;-48
2021/11/21 06:56:37;;;;;;;20.30;14.88;;;;;;;4.06;70.36;98502.63;5035259;28;20028;-47
2021/11/21 06:59:04;;;;;;;68.85;17.70;;;;;;;4.01;70.26;98505.72;5017445;28;20116;-47
2021/11/21 07:01:30;;;;;;;24.05;16.63;;;;;;;3.89;70.76;98505.22;5017647;28;20036;-48
2021/11/21 07:03:56;;;;;;;40.05;16.05;;;;;;;3.83;70.97;98505.88;5035088;28;20080;-48
2021/11/21 07:06:29;;;;;;;43.35;19.27;;;;;;;3.85;71.11;98503.13;5035106;28;20022;-48
2021/11/21 07:08:55;;;;;;;50.10;31.20;;;;;;;3.79;71.51;98501.97;5035027;28;20017;-48
2021/11/21 07:11:21;;;;;;;30.73;18.90;;;;;;;3.79;71.60;98499.38;5034904;28;20487;-48
2021/11/21 07:13:47;;;;;;;31.65;19.10;;;;;;;3.90;71.58;98490.44;5035157;28;20433;-47
2021/11/21 07:16:13;;;;;;;25.88;17.30;;;;;;;3.96;71.47;98484.59;5034890;28;20108;-48
2021/11/21 07:18:38;;;;;;;42.15;16.77;;;;;;;3.98;70.65;98490.44;5017112;28;20022;-48
2021/11/21 07:21:04;;;;;;;27.20;17.73;;;;;;;4.06;70.77;98487.84;5034719;28;20025;-48
2021/11/21 07:23:29;;;;;;;24.77;15.63;;;;;;;4.31;70.96;98490.44;5034796;28;20482;-48
2021/11/21 07:25:55;;;;;;;46.58;15.65;;;;;;;4.63;69.65;98488.72;5034715;28;20030;-48
2021/11/21 07:28:21;;;;;;;20.77;15.30;;;;;;;4.72;69.15;98485.13;5042216;28;20526;-48
2021/11/21 07:30:47;;;;;;;23.45;16.90;;;;;;;4.69;68.76;98485.44;5036577;28;20032;-48
2021/11/21 07:33:12;;;;;;;29.10;15.80;;;;;;;4.68;68.22;98476.84;5036536;28;20025;-48
2021/11/21 07:35:38;;;;;;;36.03;26.13;;;;;;;4.61;69.60;98481.09;5054476;28;20116;-49
2021/11/21 07:38:04;;;;;;;28.45;20.50;;;;;;;4.91;71.67;98484.75;5054460;28;20017;-48
2021/11/21 07:40:29;;;;;;;33.42;20.70;;;;;;;5.21;71.50;98484.91;5054414;28;20079;-49
2021/11/21 07:42:55;;;;;;;33.20;18.67;;;;;;;5.45;70.48;98483.16;5054333;28;20033;-48
2021/11/21 07:45:21;;;;;;;27.95;17.80;;;;;;;5.57;68.84;98485.22;5054340;28;20479;-49
2021/11/21 07:47:47;;;;;;;40.10;16.80;;;;;;;5.56;67.77;98485.38;5036365;28;20087;-48
2021/11/21 07:50:16;;;;;;;27.55;20.85;;;;;;;5.45;68.35;98477.94;5054159;28;20017;-48
2021/11/21 07:52:43;;;;;;;40.88;22.05;;;;;;;5.40;67.95;98471.47;5054116;28;20013;-48
2021/11/21 07:55:09;;;;;;;29.15;21.80;;;;;;;5.36;67.83;98475.41;5054098;28;20032;-48
2021/11/21 07:57:36;;;;;;;37.70;26.70;;;;;;;5.26;67.58;98480.00;5036090;28;20053;-48
2021/11/21 08:00:05;;;;;;;30.02;22.60;;;;;;;5.19;68.13;98473.84;5053896;28;20021;-48
2021/11/21 08:02:31;;;;;;;29.70;21.42;;;;;;;5.22;68.32;98476.13;5053853;28;20375;-49
2021/11/21 08:04:57;;;;;;;37.15;23.98;;;;;;;5.29;68.63;98465.84;5053863;28;20494;-48
2021/11/21 08:07:23;;;;;;;33.72;20.25;;;;;;;5.38;68.52;98476.03;5035960;28;20495;-49
2021/11/21 08:09:48;;;;;;;31.90;18.85;;;;;;;5.60;68.44;98476.22;5035854;28;20489;-49
2021/11/21 08:12:14;;;;;;;37.25;17.48;;;;;;;5.82;68.09;98481.63;5035717;28;20040;-48
2021/11/21 08:14:40;;;;;;;41.33;17.27;;;;;;;6.00;67.99;98477.75;5035836;28;20033;-49
2021/11/21 08:17:06;;;;;;;34.60;17.58;;;;;;;6.20;68.06;98480.66;5035819;28;20029;-49
2021/11/21 08:19:32;;;;;;;153.98;16.67;;;;;;;6.34;66.72;98478.25;5053693;28;20027;-48
2021/11/21 08:21:57;;;;;;;25.83;13.15;;;;;;;6.29;66.45;98481.38;5053540;28;20600;-48
2021/11/21 08:24:23;;;;;;;21.40;12.07;;;;;;;6.42;66.45;98474.75;5035676;28;20548;-48
2021/11/21 08:26:49;;;;;;;1999.90;999.90;;;;;;;6.52;65.68;98472.69;5052172;28;20031;-48
2021/11/21 08:29:14;;;;;;;921.30;635.33;;;;;;;6.53;66.17;98476.91;5032542;28;20099;-48
2021/11/21 08:31:42;;;;;;;259.88;203.20;;;;;;;6.62;65.84;98475.03;5053648;28;20399;-48
2021/11/21 08:34:09;;;;;;;298.73;230.90;;;;;;;6.70;65.39;98478.38;5053375;28;20031;-48
2021/11/21 08:36:35;;;;;;;51.13;32.33;;;;;;;6.71;65.29;98474.75;5053339;28;20029;-49
2021/11/21 08:39:03;;;;;;;32.28;18.08;;;;;;;6.75;64.79;98470.78;5053305;28;20108;-49
2021/11/21 08:41:28;;;;;;;120.88;26.85;;;;;;;6.78;64.02;98462.63;5053252;28;20119;-48
2021/11/21 08:43:56;;;;;;;67.80;29.48;;;;;;;6.60;64.39;98452.56;5053208;28;20390;-48
2021/11/21 08:46:23;;;;;;;33.10;21.35;;;;;;;6.78;64.28;98452.19;5053100;28;20017;-48
2021/11/21 08:48:48;;;;;;;65.00;18.95;;;;;;;6.89;64.02;98445.69;5053121;28;20025;-47
2021/11/21 08:51:14;;;;;;;30.13;18.83;;;;;;;6.86;64.17;98450.44;5052951;28;20032;-49
2021/11/21 08:53:44;;;;;;;35.60;17.65;;;;;;;6.97;63.45;98445.59;5053062;28;20055;-48
2021/11/21 08:56:11;;;;;;;38.85;18.30;;;;;;;6.95;63.45;98452.78;5053003;28;20371;-48
2021/11/21 08:58:37;;;;;;;43.58;16.17;;;;;;;7.04;63.18;98444.84;5052864;28;20017;-48
2021/11/21 09:01:03;;;;;;;35.92;17.15;;;;;;;7.07;63.48;98444.50;5052880;28;20437;-49
2021/11/21 09:03:30;;;;;;;54.10;16.45;;;;;;;6.92;63.12;98439.28;5052864;28;20021;-48
2021/11/21 09:05:56;;;;;;;30.63;17.27;;;;;;;6.69;63.80;98444.63;5052803;28;20033;-49
2021/11/21 09:08:24;;;;;;;31.63;19.05;;;;;;;6.65;64.31;98446.78;5041334;28;20082;-49
2021/11/21 09:10:51;;;;;;;30.08;19.13;;;;;;;6.75;63.68;98446.53;5052762;28;20025;-48
2021/11/21 09:13:17;;;;;;;58.25;19.55;;;;;;;6.73;63.51;98444.09;5052014;28;20024;-48
2021/11/21 09:15:43;;;;;;;58.92;20.67;;;;;;;6.43;63.44;98439.88;5052589;28;20058;-49
2021/11/21 09:18:09;;;;;;;85.43;21.23;;;;;;;6.33;64.63;98432.31;5052520;28;20032;-49
2021/11/21 09:20:35;;;;;;;41.45;21.17;;;;;;;6.43;64.48;98435.47;5034576;28;20078;-48
2021/11/21 09:23:09;;;;;;;35.92;22.08;;;;;;;6.60;64.22;98436.91;5034572;28;20037;-49
2021/11/21 09:25:35;;;;;;;29.55;19.48;;;;;;;6.85;64.12;98430.59;5052482;28;20029;-49
2021/11/21 09:28:01;;;;;;;33.05;20.67;;;;;;;7.02;63.40;98434.59;5052193;28;20124;-48
2021/11/21 09:30:27;;;;;;;32.47;21.88;;;;;;;7.05;63.38;98433.44;5034388;28;20108;-49
2021/11/21 09:32:53;;;;;;;34.97;21.55;;;;;;;7.11;63.28;98433.50;5052206;28;20052;-48
2021/11/21 09:35:20;;;;;;;34.83;21.70;;;;;;;7.29;62.88;98438.31;5034346;28;20155;-49
2021/11/21 09:37:46;;;;;;;53.83;24.42;;;;;;;7.19;62.94;98443.81;5052191;28;20114;-49
2021/11/21 09:40:13;;;;;;;61.75;22.15;;;;;;;7.11;62.36;98453.56;5052111;28;20486;-48
2021/11/21 09:42:41;;;;;;;36.97;23.02;;;;;;;7.10;63.29;98436.28;5052166;28;20031;-48
2021/11/21 09:45:08;;;;;;;45.25;27.58;;;;;;;7.15;63.28;98429.53;5034180;28;20023;-49
2021/11/21 09:47:34;;;;;;;36.17;22.00;;;;;;;7.35;62.67;98437.56;5052015;28;20021;-48
2021/11/21 09:50:04;;;;;;;47.30;24.02;;;;;;;7.48;62.62;98436.06;5052002;28;20048;-48
2021/11/21 09:52:29;;;;;;;39.17;21.80;;;;;;;7.71;62.17;98425.44;5051887;28;20021;-49
2021/11/21 09:54:55;;;;;;;42.40;22.58;;;;;;;7.91;61.51;98425.63;5051980;28;20098;-49
2021/11/21 09:57:22;;;;;;;37.08;21.05;;;;;;;7.96;61.31;98431.88;5033916;28;20102;-49
2021/11/21 10:00:05;;;;;;;38.33;19.13;;;;;;;7.85;61.53;98427.16;5051877;28;20021;-47
2021/11/21 10:02:39;;;;;;;31.00;20.55;;;;;;;7.79;61.79;98436.56;5051921;28;20039;-48
2021/11/21 10:05:15;;;;;;;36.25;17.27;;;;;;;7.92;61.66;98432.44;5033883;28;20037;-49
2021/11/21 10:07:41;;;;;;;24.35;16.48;;;;;;;7.86;60.96;98425.34;5043140;28;20029;-48
2021/11/21 10:10:12;;;;;;;42.92;14.68;;;;;;;7.87;61.27;98419.13;5051593;28;20557;-48
2021/11/21 10:12:41;;;;;;;28.23;15.85;;;;;;;7.78;61.38;98421.06;5051721;28;20457;-49
2021/11/21 10:15:13;;;;;;;29.80;16.33;;;;;;;7.82;61.28;98411.06;5051567;28;20410;-48
2021/11/21 10:17:42;;;;;;;21.30;15.85;;;;;;;7.95;60.81;98411.97;5033813;28;20039;-48
2021/11/21 10:20:21;;;;;;;57.22;41.60;;;;;;;7.92;60.63;98414.16;5051627;28;20429;-49
2021/11/21 10:23:08;;;;;;;20.52;16.80;;;;;;;8.00;61.05;98409.56;5051990;28;20123;-49
2021/11/21 10:25:34;;;;;;;25.30;16.92;;;;;;;7.90;61.09;98405.69;5055738;28;20106;-49
2021/11/21 10:28:26;;;;;;;25.80;16.42;;;;;;;7.80;60.69;98403.41;5055546;28;20474;-48
2021/11/21 10:31:11;;;;;;;21.00;15.18;;;;;;;7.83;61.52;98399.59;5056398;28;20390;-49
2021/11/21 10:33:43;;;;;;;24.05;16.35;;;;;;;7.83;61.04;98395.22;5055651;28;20040;-49
2021/11/21 10:36:19;;;;;;;38.55;28.50;;;;;;;7.85;61.39;98402.81;5037757;28;20406;-49
2021/11/21 10:39:06;;;;;;;24.42;16.30;;;;;;;8.01;61.32;98389.50;5037729;28;20504;-48
2021/11/21 10:41:42;;;;;;;30.88;19.05;;;;;;;8.01;60.54;98386.88;5055600;28;20040;-48
2021/11/21 10:44:14;;;;;;;27.02;15.43;;;;;;;7.92;61.18;98393.25;5055505;28;20063;-49
2021/11/21 10:46:44;;;;;;;28.83;17.27;;;;;;;7.96;60.82;98382.22;5055428;28;20017;-49
2021/11/21 10:49:27;;;;;;;16.98;14.70;;;;;;;7.94;61.07;98378.19;5055408;28;20051;-48
2021/11/21 10:52:21;;;;;;;18.40;13.90;;;;;;;7.77;61.19;98383.69;5055302;28;20095;-49
2021/11/21 10:54:52;;;;;;;32.83;27.48;;;;;;;7.67;62.04;98378.00;5037374;28;20508;-49
2021/11/21 10:57:34;;;;;;;20.90;15.27;;;;;;;7.84;62.42;98370.69;5055234;28;20047;-48
2021/11/21 11:00:06;;;;;;;25.73;15.95;;;;;;;8.02;61.35;98362.34;5037259;28;20047;-49
2021/11/21 11:02:38;;;;;;;21.55;13.65;;;;;;;8.09;60.94;98365.84;5055182;28;20024;-49
2021/11/21 11:05:13;;;;;;;19.27;15.00;;;;;;;8.19;61.21;98352.41;5055204;28;20047;-49
2021/11/21 11:07:45;;;;;;;18.27;14.32;;;;;;;8.31;60.91;98356.09;5055068;28;20017;-49
2021/11/21 11:10:22;;;;;;;20.55;13.10;;;;;;;8.48;60.62;98355.81;5054964;28;20032;-49
2021/11/21 11:13:03;;;;;;;17.25;13.18;;;;;;;8.88;59.92;98351.50;5054944;28;20074;-48
2021/11/21 11:15:30;;;;;;;20.23;13.98;;;;;;;9.14;59.02;98350.75;5054942;28;20033;-49
2021/11/21 11:17:57;;;;;;;17.98;13.95;;;;;;;9.34;58.59;98336.88;5036894;28;20577;-49
2021/11/21 11:20:24;;;;;;;22.58;15.45;;;;;;;9.46;58.76;98344.97;5036807;28;20032;-49
2021/11/21 11:22:51;;;;;;;22.52;13.68;;;;;;;9.51;58.62;98329.44;5054771;28;20021;-48
2021/11/21 11:25:25;;;;;;;22.02;15.38;;;;;;;9.71;58.01;98335.44;5036696;28;20028;-49
2021/11/21 11:28:13;;;;;;;20.20;14.73;;;;;;;9.55;58.44;98330.63;5054428;28;20410;-49